sensor_id;sensor_type;location;lat;lon;timestamp;temperature;humidity
18690;DHT22;9782;52.930;15.562;2023-03-23T00:00:10;11.10;99.90
18690;DHT22;9782;52.930;15.562;2023-03-23T00:02:38;11.00;99.90
18690;DHT22;9782;52.930;15.562;2023-03-23T00:05:06;11.00;99.90
18690;DHT22;9782;52.930;15.562;2023-03-23T00:07:33;10.90;1.00
18690;DHT22;9782;52.930;15.562;2023-03-23T00:10:01;10.80;1.00
18690;DHT22;9782;52.930;15.562;2023-03-23T00:12:31;10.80;1.00
18690;DHT22;9782;52.930;15.562;2023-03-23T00:15:00;10.70;1.00
18690;DHT22;9782;52.930;15.562;2023-03-23T00:17:27;10.70;1.00
18690;DHT22;9782;52.930;15.562;2023-03-23T00:19:55;10.70;1.00
18690;DHT22;9782;52.930;15.562;2023-03-23T00:22:22;10.70;1.00
18690;DHT22;9782;52.930;15.562;2023-03-23T00:24:51;10.70;1.00
18690;DHT22;9782;52.930;15.562;2023-03-23T00:27:18;10.70;1.00
18690;DHT22;9782;52.930;15.562;2023-03-23T00:29:49;10.90;1.00
18690;DHT22;9782;52.930;15.562;2023-03-23T00:32:18;10.90;1.00
18690;DHT22;9782;52.930;15.562;2023-03-23T00:34:46;11.00;1.00
18690;DHT22;9782;52.930;15.562;2023-03-23T00:37:15;11.00;1.00
18690;DHT22;9782;52.930;15.562;2023-03-23T00:39:43;11.00;1.00
18690;DHT22;9782;52.930;15.562;2023-03-23T00:42:12;11.00;1.00
18690;DHT22;9782;52.930;15.562;2023-03-23T00:44:39;11.00;1.00
18690;DHT22;9782;52.930;15.562;2023-03-23T00:47:07;11.00;1.00
18690;DHT22;9782;52.930;15.562;2023-03-23T00:49:36;11.00;1.00
18690;DHT22;9782;52.930;15.562;2023-03-23T00:52:04;11.00;1.00
18690;DHT22;9782;52.930;15.562;2023-03-23T00:54:31;11.00;1.00
18690;DHT22;9782;52.930;15.562;2023-03-23T00:56:59;11.00;1.00
18690;DHT22;9782;52.930;15.562;2023-03-23T00:59:26;10.90;1.00
18690;DHT22;9782;52.930;15.562;2023-03-23T01:01:52;10.80;1.00
18690;DHT22;9782;52.930;15.562;2023-03-23T01:04:21;10.70;1.00
18690;DHT22;9782;52.930;15.562;2023-03-23T01:06:50;10.70;1.00
18690;DHT22;9782;52.930;15.562;2023-03-23T01:09:18;10.60;1.00
18690;DHT22;9782;52.930;15.562;2023-03-23T01:11:47;10.50;1.00
18690;DHT22;9782;52.930;15.562;2023-03-23T01:14:17;10.50;1.00
18690;DHT22;9782;52.930;15.562;2023-03-23T01:16:45;10.40;72.50
18690;DHT22;9782;52.930;15.562;2023-03-23T01:19:11;10.40;99.90
18690;DHT22;9782;52.930;15.562;2023-03-23T01:21:40;10.40;99.90
18690;DHT22;9782;52.930;15.562;2023-03-23T01:24:07;10.30;99.90
18690;DHT22;9782;52.930;15.562;2023-03-23T01:26:34;10.40;99.90
18690;DHT22;9782;52.930;15.562;2023-03-23T01:29:01;10.40;99.90
18690;DHT22;9782;52.930;15.562;2023-03-23T01:31:28;10.50;99.90
18690;DHT22;9782;52.930;15.562;2023-03-23T01:33:55;10.40;99.90
18690;DHT22;9782;52.930;15.562;2023-03-23T01:36:24;10.40;99.90
18690;DHT22;9782;52.930;15.562;2023-03-23T01:38:53;10.30;99.90
18690;DHT22;9782;52.930;15.562;2023-03-23T01:41:21;10.20;99.90
18690;DHT22;9782;52.930;15.562;2023-03-23T01:43:56;10.20;99.90
18690;DHT22;9782;52.930;15.562;2023-03-23T01:46:23;10.10;99.90
18690;DHT22;9782;52.930;15.562;2023-03-23T01:48:51;10.10;99.90
18690;DHT22;9782;52.930;15.562;2023-03-23T01:51:20;10.00;1.00
18690;DHT22;9782;52.930;15.562;2023-03-23T01:53:50;10.00;1.00
18690;DHT22;9782;52.930;15.562;2023-03-23T01:56:21;10.00;1.00
18690;DHT22;9782;52.930;15.562;2023-03-23T01:58:51;9.90;1.00
18690;DHT22;9782;52.930;15.562;2023-03-23T02:01:20;9.90;1.00
18690;DHT22;9782;52.930;15.562;2023-03-23T02:03:52;9.90;1.00
18690;DHT22;9782;52.930;15.562;2023-03-23T02:06:21;9.80;1.00
18690;DHT22;9782;52.930;15.562;2023-03-23T02:08:49;9.80;1.00
18690;DHT22;9782;52.930;15.562;2023-03-23T02:11:21;9.80;1.00
18690;DHT22;9782;52.930;15.562;2023-03-23T02:13:49;9.70;1.00
18690;DHT22;9782;52.930;15.562;2023-03-23T02:16:23;9.70;1.00
18690;DHT22;9782;52.930;15.562;2023-03-23T02:19:10;9.60;19.60
18690;DHT22;9782;52.930;15.562;2023-03-23T02:22:01;9.50;9.90
18690;DHT22;9782;52.930;15.562;2023-03-23T02:24:48;9.50;76.40
18690;DHT22;9782;52.930;15.562;2023-03-23T02:27:49;9.40;99.90
18690;DHT22;9782;52.930;15.562;2023-03-23T02:30:40;9.40;99.90
18690;DHT22;9782;52.930;15.562;2023-03-23T02:33:37;9.30;99.90
18690;DHT22;9782;52.930;15.562;2023-03-23T02:36:10;9.20;99.90
18690;DHT22;9782;52.930;15.562;2023-03-23T02:38:43;9.20;99.90
18690;DHT22;9782;52.930;15.562;2023-03-23T02:41:18;9.20;99.90
18690;DHT22;9782;52.930;15.562;2023-03-23T02:43:46;9.20;1.00
18690;DHT22;9782;52.930;15.562;2023-03-23T02:46:14;9.10;1.00
18690;DHT22;9782;52.930;15.562;2023-03-23T02:48:44;9.10;1.00
18690;DHT22;9782;52.930;15.562;2023-03-23T02:51:14;9.10;1.00
18690;DHT22;9782;52.930;15.562;2023-03-23T02:53:43;9.10;1.00
18690;DHT22;9782;52.930;15.562;2023-03-23T02:56:12;9.00;1.00
18690;DHT22;9782;52.930;15.562;2023-03-23T02:58:40;9.00;1.00
18690;DHT22;9782;52.930;15.562;2023-03-23T03:01:16;9.00;1.00
18690;DHT22;9782;52.930;15.562;2023-03-23T03:04:06;9.00;1.00
18690;DHT22;9782;52.930;15.562;2023-03-23T03:06:37;9.00;1.00
18690;DHT22;9782;52.930;15.562;2023-03-23T03:09:13;9.00;1.00
18690;DHT22;9782;52.930;15.562;2023-03-23T03:11:46;9.00;1.00
18690;DHT22;9782;52.930;15.562;2023-03-23T03:14:21;8.90;1.00
18690;DHT22;9782;52.930;15.562;2023-03-23T03:16:56;9.00;1.00
18690;DHT22;9782;52.930;15.562;2023-03-23T03:19:29;8.90;1.00
18690;DHT22;9782;52.930;15.562;2023-03-23T03:21:58;9.00;1.00
18690;DHT22;9782;52.930;15.562;2023-03-23T03:24:28;9.00;1.00
18690;DHT22;9782;52.930;15.562;2023-03-23T03:26:57;8.90;1.00
18690;DHT22;9782;52.930;15.562;2023-03-23T03:29:28;8.90;1.00
18690;DHT22;9782;52.930;15.562;2023-03-23T03:31:58;9.00;1.00
18690;DHT22;9782;52.930;15.562;2023-03-23T03:34:27;9.00;1.00
18690;DHT22;9782;52.930;15.562;2023-03-23T03:36:58;9.00;1.00
18690;DHT22;9782;52.930;15.562;2023-03-23T03:39:27;9.00;1.00
18690;DHT22;9782;52.930;15.562;2023-03-23T03:41:54;9.00;1.00
18690;DHT22;9782;52.930;15.562;2023-03-23T03:44:21;9.00;1.00
18690;DHT22;9782;52.930;15.562;2023-03-23T03:46:48;9.00;1.00
18690;DHT22;9782;52.930;15.562;2023-03-23T03:49:15;9.00;1.00
18690;DHT22;9782;52.930;15.562;2023-03-23T03:51:43;9.00;1.00
18690;DHT22;9782;52.930;15.562;2023-03-23T03:54:10;9.10;1.00
18690;DHT22;9782;52.930;15.562;2023-03-23T03:56:37;9.10;1.00
18690;DHT22;9782;52.930;15.562;2023-03-23T03:59:06;9.20;1.00
18690;DHT22;9782;52.930;15.562;2023-03-23T04:01:33;9.20;1.00
18690;DHT22;9782;52.930;15.562;2023-03-23T04:04:00;9.30;1.00
18690;DHT22;9782;52.930;15.562;2023-03-23T04:06:27;9.30;1.00
18690;DHT22;9782;52.930;15.562;2023-03-23T04:08:55;9.30;1.00
18690;DHT22;9782;52.930;15.562;2023-03-23T04:11:25;9.30;1.00
18690;DHT22;9782;52.930;15.562;2023-03-23T04:13:52;9.30;1.00
18690;DHT22;9782;52.930;15.562;2023-03-23T04:16:18;9.40;1.00
18690;DHT22;9782;52.930;15.562;2023-03-23T04:18:46;9.40;1.00
18690;DHT22;9782;52.930;15.562;2023-03-23T04:21:13;9.50;99.90
18690;DHT22;9782;52.930;15.562;2023-03-23T04:23:41;9.60;99.90
18690;DHT22;9782;52.930;15.562;2023-03-23T04:26:09;9.60;99.90
18690;DHT22;9782;52.930;15.562;2023-03-23T04:28:38;9.70;99.90
18690;DHT22;9782;52.930;15.562;2023-03-23T04:31:06;9.60;99.90
18690;DHT22;9782;52.930;15.562;2023-03-23T04:33:34;9.60;99.90
18690;DHT22;9782;52.930;15.562;2023-03-23T04:36:03;9.50;99.90
18690;DHT22;9782;52.930;15.562;2023-03-23T04:38:32;9.50;99.90
18690;DHT22;9782;52.930;15.562;2023-03-23T04:40:59;9.40;99.90
18690;DHT22;9782;52.930;15.562;2023-03-23T04:43:28;9.40;99.90
18690;DHT22;9782;52.930;15.562;2023-03-23T04:45:56;9.30;99.90
18690;DHT22;9782;52.930;15.562;2023-03-23T04:48:23;9.30;99.90
18690;DHT22;9782;52.930;15.562;2023-03-23T04:50:51;9.20;99.90
18690;DHT22;9782;52.930;15.562;2023-03-23T04:53:18;9.20;99.90
18690;DHT22;9782;52.930;15.562;2023-03-23T04:55:47;9.20;99.90
18690;DHT22;9782;52.930;15.562;2023-03-23T04:58:16;9.20;1.00
18690;DHT22;9782;52.930;15.562;2023-03-23T05:00:44;9.30;1.00
18690;DHT22;9782;52.930;15.562;2023-03-23T05:03:15;9.30;1.00
18690;DHT22;9782;52.930;15.562;2023-03-23T05:05:42;9.40;1.00
18690;DHT22;9782;52.930;15.562;2023-03-23T05:08:12;9.50;99.90
18690;DHT22;9782;52.930;15.562;2023-03-23T05:10:39;9.60;99.90
18690;DHT22;9782;52.930;15.562;2023-03-23T05:13:06;9.70;99.90
18690;DHT22;9782;52.930;15.562;2023-03-23T05:15:33;9.80;99.90
18690;DHT22;9782;52.930;15.562;2023-03-23T05:18:02;9.90;99.90
18690;DHT22;9782;52.930;15.562;2023-03-23T05:20:29;9.90;1.00
18690;DHT22;9782;52.930;15.562;2023-03-23T05:22:56;10.00;1.00
18690;DHT22;9782;52.930;15.562;2023-03-23T05:25:23;10.00;1.00
18690;DHT22;9782;52.930;15.562;2023-03-23T05:27:50;10.10;1.00
18690;DHT22;9782;52.930;15.562;2023-03-23T05:30:18;10.10;1.00
18690;DHT22;9782;52.930;15.562;2023-03-23T05:32:46;10.10;1.00
18690;DHT22;9782;52.930;15.562;2023-03-23T05:35:18;10.10;1.00
18690;DHT22;9782;52.930;15.562;2023-03-23T05:37:45;10.10;1.00
18690;DHT22;9782;52.930;15.562;2023-03-23T05:40:13;10.10;1.00
18690;DHT22;9782;52.930;15.562;2023-03-23T05:42:40;10.20;1.00
18690;DHT22;9782;52.930;15.562;2023-03-23T05:45:09;10.20;1.00
18690;DHT22;9782;52.930;15.562;2023-03-23T05:47:38;10.20;1.00
18690;DHT22;9782;52.930;15.562;2023-03-23T05:50:06;10.30;1.00
18690;DHT22;9782;52.930;15.562;2023-03-23T05:52:37;10.30;1.00
18690;DHT22;9782;52.930;15.562;2023-03-23T05:55:05;10.30;1.00
18690;DHT22;9782;52.930;15.562;2023-03-23T05:57:33;10.40;1.00
18690;DHT22;9782;52.930;15.562;2023-03-23T06:00:00;10.40;1.00
18690;DHT22;9782;52.930;15.562;2023-03-23T06:02:38;10.50;1.00
18690;DHT22;9782;52.930;15.562;2023-03-23T06:05:06;10.50;1.00
18690;DHT22;9782;52.930;15.562;2023-03-23T06:07:35;10.60;1.00
18690;DHT22;9782;52.930;15.562;2023-03-23T06:10:03;10.70;1.00
18690;DHT22;9782;52.930;15.562;2023-03-23T06:12:30;10.70;99.90
18690;DHT22;9782;52.930;15.562;2023-03-23T06:14:57;10.80;99.90
18690;DHT22;9782;52.930;15.562;2023-03-23T06:17:24;10.90;99.90
18690;DHT22;9782;52.930;15.562;2023-03-23T06:19:51;11.00;99.90
18690;DHT22;9782;52.930;15.562;2023-03-23T06:22:18;11.00;99.90
18690;DHT22;9782;52.930;15.562;2023-03-23T06:24:47;11.00;99.90
18690;DHT22;9782;52.930;15.562;2023-03-23T06:27:14;11.10;99.90
18690;DHT22;9782;52.930;15.562;2023-03-23T06:29:41;11.10;99.90
18690;DHT22;9782;52.930;15.562;2023-03-23T06:32:10;11.20;99.90
18690;DHT22;9782;52.930;15.562;2023-03-23T06:34:38;11.30;99.90
18690;DHT22;9782;52.930;15.562;2023-03-23T06:37:06;11.40;99.90
18690;DHT22;9782;52.930;15.562;2023-03-23T06:39:33;11.50;59.20
18690;DHT22;9782;52.930;15.562;2023-03-23T06:42:01;11.60;1.00
18690;DHT22;9782;52.930;15.562;2023-03-23T06:44:28;11.70;1.00
18690;DHT22;9782;52.930;15.562;2023-03-23T06:46:54;11.80;1.00
18690;DHT22;9782;52.930;15.562;2023-03-23T06:49:21;11.80;1.00
18690;DHT22;9782;52.930;15.562;2023-03-23T06:51:48;11.90;1.00
18690;DHT22;9782;52.930;15.562;2023-03-23T06:54:15;11.90;1.00
18690;DHT22;9782;52.930;15.562;2023-03-23T06:56:42;12.00;1.00
18690;DHT22;9782;52.930;15.562;2023-03-23T06:59:10;12.20;1.00
18690;DHT22;9782;52.930;15.562;2023-03-23T07:01:37;12.40;1.00
18690;DHT22;9782;52.930;15.562;2023-03-23T07:04:04;12.50;1.00
18690;DHT22;9782;52.930;15.562;2023-03-23T07:06:31;12.60;1.00
18690;DHT22;9782;52.930;15.562;2023-03-23T07:08:58;12.70;99.90
18690;DHT22;9782;52.930;15.562;2023-03-23T07:11:25;12.80;99.90
18690;DHT22;9782;52.930;15.562;2023-03-23T07:13:52;12.80;99.90
18690;DHT22;9782;52.930;15.562;2023-03-23T07:16:20;12.80;99.90
18690;DHT22;9782;52.930;15.562;2023-03-23T07:18:48;12.80;99.90
18690;DHT22;9782;52.930;15.562;2023-03-23T07:21:15;12.80;99.90
18690;DHT22;9782;52.930;15.562;2023-03-23T07:23:42;12.80;99.90
18690;DHT22;9782;52.930;15.562;2023-03-23T07:26:11;12.90;99.90
18690;DHT22;9782;52.930;15.562;2023-03-23T07:28:39;12.90;99.90
18690;DHT22;9782;52.930;15.562;2023-03-23T07:31:06;12.90;99.90
18690;DHT22;9782;52.930;15.562;2023-03-23T07:33:35;13.00;99.90
18690;DHT22;9782;52.930;15.562;2023-03-23T07:36:03;13.10;99.90
18690;DHT22;9782;52.930;15.562;2023-03-23T07:38:30;13.10;99.90
18690;DHT22;9782;52.930;15.562;2023-03-23T07:40:57;13.10;99.90
18690;DHT22;9782;52.930;15.562;2023-03-23T07:43:24;13.10;99.90
18690;DHT22;9782;52.930;15.562;2023-03-23T07:45:52;13.00;99.90
18690;DHT22;9782;52.930;15.562;2023-03-23T07:48:18;12.90;99.90
18690;DHT22;9782;52.930;15.562;2023-03-23T07:50:47;12.80;1.00
18690;DHT22;9782;52.930;15.562;2023-03-23T07:53:14;12.70;1.00
18690;DHT22;9782;52.930;15.562;2023-03-23T07:55:41;12.70;1.00
18690;DHT22;9782;52.930;15.562;2023-03-23T07:58:07;12.60;1.00
18690;DHT22;9782;52.930;15.562;2023-03-23T08:00:34;12.60;1.00
18690;DHT22;9782;52.930;15.562;2023-03-23T08:03:04;12.60;78.50
18690;DHT22;9782;52.930;15.562;2023-03-23T08:05:31;12.70;99.90
18690;DHT22;9782;52.930;15.562;2023-03-23T08:08:00;12.80;99.90
18690;DHT22;9782;52.930;15.562;2023-03-23T08:10:27;12.80;99.90
18690;DHT22;9782;52.930;15.562;2023-03-23T08:12:56;12.90;99.90
18690;DHT22;9782;52.930;15.562;2023-03-23T08:15:25;12.90;99.90
18690;DHT22;9782;52.930;15.562;2023-03-23T08:17:52;13.00;99.90
18690;DHT22;9782;52.930;15.562;2023-03-23T08:20:19;13.10;99.90
18690;DHT22;9782;52.930;15.562;2023-03-23T08:22:50;13.20;99.90
18690;DHT22;9782;52.930;15.562;2023-03-23T08:25:19;13.40;99.90
18690;DHT22;9782;52.930;15.562;2023-03-23T08:27:46;13.40;99.90
18690;DHT22;9782;52.930;15.562;2023-03-23T08:30:17;13.40;99.90
18690;DHT22;9782;52.930;15.562;2023-03-23T08:32:45;13.50;99.90
18690;DHT22;9782;52.930;15.562;2023-03-23T08:35:13;13.60;99.90
18690;DHT22;9782;52.930;15.562;2023-03-23T08:37:41;13.70;99.90
18690;DHT22;9782;52.930;15.562;2023-03-23T08:40:12;13.90;99.90
18690;DHT22;9782;52.930;15.562;2023-03-23T08:42:42;14.00;99.90
18690;DHT22;9782;52.930;15.562;2023-03-23T08:45:12;14.10;99.90
18690;DHT22;9782;52.930;15.562;2023-03-23T08:47:41;14.20;99.90
18690;DHT22;9782;52.930;15.562;2023-03-23T08:50:11;14.40;99.90
18690;DHT22;9782;52.930;15.562;2023-03-23T08:52:38;14.60;99.90
18690;DHT22;9782;52.930;15.562;2023-03-23T08:55:05;14.60;99.90
18690;DHT22;9782;52.930;15.562;2023-03-23T08:57:34;14.40;99.90
18690;DHT22;9782;52.930;15.562;2023-03-23T09:00:04;14.30;99.90
18690;DHT22;9782;52.930;15.562;2023-03-23T09:02:39;14.20;1.00
18690;DHT22;9782;52.930;15.562;2023-03-23T09:05:06;14.20;1.00
18690;DHT22;9782;52.930;15.562;2023-03-23T09:07:35;14.30;25.50
18690;DHT22;9782;52.930;15.562;2023-03-23T09:10:02;14.40;98.40
18690;DHT22;9782;52.930;15.562;2023-03-23T09:12:29;14.70;34.80
18690;DHT22;9782;52.930;15.562;2023-03-23T09:14:56;14.90;12.20
18690;DHT22;9782;52.930;15.562;2023-03-23T09:17:24;15.10;1.00
18690;DHT22;9782;52.930;15.562;2023-03-23T09:19:51;15.20;99.90
18690;DHT22;9782;52.930;15.562;2023-03-23T09:22:18;15.10;1.00
18690;DHT22;9782;52.930;15.562;2023-03-23T09:24:49;14.90;1.00
18690;DHT22;9782;52.930;15.562;2023-03-23T09:27:17;14.80;5.00
18690;DHT22;9782;52.930;15.562;2023-03-23T09:29:44;14.80;66.50
18690;DHT22;9782;52.930;15.562;2023-03-23T09:32:14;14.80;74.40
18690;DHT22;9782;52.930;15.562;2023-03-23T09:34:44;14.70;74.80
18690;DHT22;9782;52.930;15.562;2023-03-23T09:37:10;14.70;1.00
18690;DHT22;9782;52.930;15.562;2023-03-23T09:39:39;14.70;46.00
18690;DHT22;9782;52.930;15.562;2023-03-23T09:42:19;14.70;92.70
18690;DHT22;9782;52.930;15.562;2023-03-23T09:45:00;14.70;94.50
18690;DHT22;9782;52.930;15.562;2023-03-23T09:47:35;14.60;99.90
18690;DHT22;9782;52.930;15.562;2023-03-23T09:50:10;14.60;99.90
18690;DHT22;9782;52.930;15.562;2023-03-23T09:52:43;14.50;1.00
18690;DHT22;9782;52.930;15.562;2023-03-23T09:55:14;14.60;1.00
18690;DHT22;9782;52.930;15.562;2023-03-23T09:57:47;14.50;1.00
18690;DHT22;9782;52.930;15.562;2023-03-23T10:00:19;14.50;99.90
18690;DHT22;9782;52.930;15.562;2023-03-23T10:02:55;14.50;1.00
18690;DHT22;9782;52.930;15.562;2023-03-23T10:05:30;14.60;1.00
18690;DHT22;9782;52.930;15.562;2023-03-23T10:07:59;14.60;1.00
18690;DHT22;9782;52.930;15.562;2023-03-23T10:10:33;14.60;1.00
18690;DHT22;9782;52.930;15.562;2023-03-23T10:13:08;14.50;1.00
18690;DHT22;9782;52.930;15.562;2023-03-23T10:15:39;14.40;1.00
18690;DHT22;9782;52.930;15.562;2023-03-23T10:18:12;14.40;99.90
18690;DHT22;9782;52.930;15.562;2023-03-23T10:20:48;14.50;99.90
18690;DHT22;9782;52.930;15.562;2023-03-23T10:23:46;14.60;99.90
18690;DHT22;9782;52.930;15.562;2023-03-23T10:26:25;14.70;99.90
18690;DHT22;9782;52.930;15.562;2023-03-23T10:28:57;14.90;99.90
18690;DHT22;9782;52.930;15.562;2023-03-23T10:31:29;15.20;99.90
18690;DHT22;9782;52.930;15.562;2023-03-23T10:34:01;15.50;99.90
18690;DHT22;9782;52.930;15.562;2023-03-23T10:36:34;15.60;99.90
18690;DHT22;9782;52.930;15.562;2023-03-23T10:39:05;15.60;99.90
18690;DHT22;9782;52.930;15.562;2023-03-23T10:41:35;15.60;99.90
18690;DHT22;9782;52.930;15.562;2023-03-23T10:44:09;15.60;99.90
18690;DHT22;9782;52.930;15.562;2023-03-23T10:46:46;15.50;99.90
18690;DHT22;9782;52.930;15.562;2023-03-23T10:49:18;15.60;99.90
18690;DHT22;9782;52.930;15.562;2023-03-23T10:51:55;15.70;99.90
18690;DHT22;9782;52.930;15.562;2023-03-23T10:54:27;15.80;99.90
18690;DHT22;9782;52.930;15.562;2023-03-23T10:56:59;15.90;99.90
18690;DHT22;9782;52.930;15.562;2023-03-23T10:59:27;15.90;99.90
18690;DHT22;9782;52.930;15.562;2023-03-23T11:01:57;15.90;99.90
18690;DHT22;9782;52.930;15.562;2023-03-23T11:04:25;16.00;99.90
18690;DHT22;9782;52.930;15.562;2023-03-23T11:06:58;16.20;99.90
18690;DHT22;9782;52.930;15.562;2023-03-23T11:09:35;16.40;99.90
18690;DHT22;9782;52.930;15.562;2023-03-23T11:12:02;16.60;99.90
18690;DHT22;9782;52.930;15.562;2023-03-23T11:14:31;16.80;99.90
18690;DHT22;9782;52.930;15.562;2023-03-23T11:17:00;16.90;29.00
18690;DHT22;9782;52.930;15.562;2023-03-23T11:19:29;16.70;1.00
18690;DHT22;9782;52.930;15.562;2023-03-23T11:22:07;16.60;1.00
18690;DHT22;9782;52.930;15.562;2023-03-23T11:24:36;16.50;30.50
18690;DHT22;9782;52.930;15.562;2023-03-23T11:27:07;16.50;1.00
18690;DHT22;9782;52.930;15.562;2023-03-23T11:29:36;16.50;1.00
18690;DHT22;9782;52.930;15.562;2023-03-23T11:32:05;16.50;1.00
18690;DHT22;9782;52.930;15.562;2023-03-23T11:34:35;16.60;1.00
18690;DHT22;9782;52.930;15.562;2023-03-23T11:37:06;16.60;1.00
18690;DHT22;9782;52.930;15.562;2023-03-23T11:39:46;16.70;1.00
18690;DHT22;9782;52.930;15.562;2023-03-23T11:42:19;16.80;1.00
18690;DHT22;9782;52.930;15.562;2023-03-23T11:44:46;16.90;1.00
18690;DHT22;9782;52.930;15.562;2023-03-23T11:47:20;17.00;1.00
18690;DHT22;9782;52.930;15.562;2023-03-23T11:49:55;17.20;1.00
18690;DHT22;9782;52.930;15.562;2023-03-23T11:52:31;17.30;1.00
18690;DHT22;9782;52.930;15.562;2023-03-23T11:55:02;17.40;1.00
18690;DHT22;9782;52.930;15.562;2023-03-23T11:57:30;17.40;99.90
18690;DHT22;9782;52.930;15.562;2023-03-23T11:59:58;17.50;99.90
18690;DHT22;9782;52.930;15.562;2023-03-23T12:02:37;17.50;99.90
18690;DHT22;9782;52.930;15.562;2023-03-23T12:05:28;17.40;99.90
18690;DHT22;9782;52.930;15.562;2023-03-23T12:08:30;17.30;99.90
18690;DHT22;9782;52.930;15.562;2023-03-23T12:11:05;17.30;99.90
18690;DHT22;9782;52.930;15.562;2023-03-23T12:13:56;17.20;99.90
18690;DHT22;9782;52.930;15.562;2023-03-23T12:16:41;17.20;99.90
18690;DHT22;9782;52.930;15.562;2023-03-23T12:19:15;17.20;99.90
18690;DHT22;9782;52.930;15.562;2023-03-23T12:21:52;17.30;99.90
18690;DHT22;9782;52.930;15.562;2023-03-23T12:24:33;17.40;99.90
18690;DHT22;9782;52.930;15.562;2023-03-23T12:27:06;17.30;99.90
18690;DHT22;9782;52.930;15.562;2023-03-23T12:29:59;17.30;99.90
18690;DHT22;9782;52.930;15.562;2023-03-23T12:32:52;17.30;99.90
18690;DHT22;9782;52.930;15.562;2023-03-23T12:35:31;17.20;99.90
18690;DHT22;9782;52.930;15.562;2023-03-23T12:38:12;17.10;99.90
18690;DHT22;9782;52.930;15.562;2023-03-23T12:40:55;17.00;99.90
18690;DHT22;9782;52.930;15.562;2023-03-23T12:43:28;16.90;99.90
18690;DHT22;9782;52.930;15.562;2023-03-23T12:46:14;16.80;99.90
18690;DHT22;9782;52.930;15.562;2023-03-23T12:48:45;16.80;99.90
18690;DHT22;9782;52.930;15.562;2023-03-23T12:51:21;16.70;99.90
18690;DHT22;9782;52.930;15.562;2023-03-23T12:53:55;16.70;99.90
18690;DHT22;9782;52.930;15.562;2023-03-23T12:56:29;16.80;99.90
18690;DHT22;9782;52.930;15.562;2023-03-23T12:59:03;16.80;99.90
18690;DHT22;9782;52.930;15.562;2023-03-23T13:01:36;16.70;99.90
18690;DHT22;9782;52.930;15.562;2023-03-23T13:04:08;16.60;99.90
18690;DHT22;9782;52.930;15.562;2023-03-23T13:06:38;16.50;99.90
18690;DHT22;9782;52.930;15.562;2023-03-23T13:09:14;16.40;99.90
18690;DHT22;9782;52.930;15.562;2023-03-23T13:11:44;16.40;99.90
18690;DHT22;9782;52.930;15.562;2023-03-23T13:14:34;16.40;99.90
18690;DHT22;9782;52.930;15.562;2023-03-23T13:17:10;16.40;99.90
18690;DHT22;9782;52.930;15.562;2023-03-23T13:19:59;16.60;99.90
18690;DHT22;9782;52.930;15.562;2023-03-23T13:22:32;16.70;99.90
18690;DHT22;9782;52.930;15.562;2023-03-23T13:25:13;16.70;99.90
18690;DHT22;9782;52.930;15.562;2023-03-23T13:27:41;16.80;99.90
18690;DHT22;9782;52.930;15.562;2023-03-23T13:30:19;16.80;99.90
18690;DHT22;9782;52.930;15.562;2023-03-23T13:32:50;16.90;99.90
18690;DHT22;9782;52.930;15.562;2023-03-23T13:35:19;17.10;99.90
18690;DHT22;9782;52.930;15.562;2023-03-23T13:37:49;17.30;94.70
18690;DHT22;9782;52.930;15.562;2023-03-23T13:40:24;17.20;24.20
18690;DHT22;9782;52.930;15.562;2023-03-23T13:42:56;17.20;24.40
18690;DHT22;9782;52.930;15.562;2023-03-23T13:45:35;17.20;1.00
18690;DHT22;9782;52.930;15.562;2023-03-23T13:48:16;17.10;1.00
18690;DHT22;9782;52.930;15.562;2023-03-23T13:50:50;17.10;1.00
18690;DHT22;9782;52.930;15.562;2023-03-23T13:53:23;17.00;1.00
18690;DHT22;9782;52.930;15.562;2023-03-23T13:56:02;16.90;1.00
18690;DHT22;9782;52.930;15.562;2023-03-23T13:58:31;16.90;1.00
18690;DHT22;9782;52.930;15.562;2023-03-23T14:01:11;16.90;1.00
18690;DHT22;9782;52.930;15.562;2023-03-23T14:03:42;16.90;1.00
18690;DHT22;9782;52.930;15.562;2023-03-23T14:06:13;17.00;1.00
18690;DHT22;9782;52.930;15.562;2023-03-23T14:08:43;17.00;1.00
18690;DHT22;9782;52.930;15.562;2023-03-23T14:11:16;17.10;1.00
18690;DHT22;9782;52.930;15.562;2023-03-23T14:13:57;17.20;1.00
18690;DHT22;9782;52.930;15.562;2023-03-23T14:16:27;17.30;1.00
18690;DHT22;9782;52.930;15.562;2023-03-23T14:18:58;17.40;1.00
18690;DHT22;9782;52.930;15.562;2023-03-23T14:21:33;17.50;1.00
18690;DHT22;9782;52.930;15.562;2023-03-23T14:24:02;17.80;1.00
18690;DHT22;9782;52.930;15.562;2023-03-23T14:26:29;17.90;1.00
18690;DHT22;9782;52.930;15.562;2023-03-23T14:28:57;17.90;1.00
18690;DHT22;9782;52.930;15.562;2023-03-23T14:31:26;17.70;1.00
18690;DHT22;9782;52.930;15.562;2023-03-23T14:33:55;17.50;1.00
18690;DHT22;9782;52.930;15.562;2023-03-23T14:36:23;17.40;1.00
18690;DHT22;9782;52.930;15.562;2023-03-23T14:39:01;17.30;1.00
18690;DHT22;9782;52.930;15.562;2023-03-23T14:41:29;17.50;1.00
18690;DHT22;9782;52.930;15.562;2023-03-23T14:43:59;17.60;1.00
18690;DHT22;9782;52.930;15.562;2023-03-23T14:46:27;17.50;1.00
18690;DHT22;9782;52.930;15.562;2023-03-23T14:48:58;17.30;1.00
18690;DHT22;9782;52.930;15.562;2023-03-23T14:51:25;17.00;1.00
18690;DHT22;9782;52.930;15.562;2023-03-23T14:53:53;16.60;1.00
18690;DHT22;9782;52.930;15.562;2023-03-23T14:56:22;16.40;1.00
18690;DHT22;9782;52.930;15.562;2023-03-23T14:58:53;16.20;1.00
18690;DHT22;9782;52.930;15.562;2023-03-23T15:01:24;16.10;1.00
18690;DHT22;9782;52.930;15.562;2023-03-23T15:03:55;15.90;1.00
18690;DHT22;9782;52.930;15.562;2023-03-23T15:06:25;15.80;1.00
18690;DHT22;9782;52.930;15.562;2023-03-23T15:08:55;15.80;1.00
18690;DHT22;9782;52.930;15.562;2023-03-23T15:11:24;15.80;1.00
18690;DHT22;9782;52.930;15.562;2023-03-23T15:13:55;15.80;1.00
18690;DHT22;9782;52.930;15.562;2023-03-23T15:16:26;16.00;1.00
18690;DHT22;9782;52.930;15.562;2023-03-23T15:18:55;16.20;1.00
18690;DHT22;9782;52.930;15.562;2023-03-23T15:21:27;16.40;1.00
18690;DHT22;9782;52.930;15.562;2023-03-23T15:23:54;16.40;1.00
18690;DHT22;9782;52.930;15.562;2023-03-23T15:26:28;16.40;1.00
18690;DHT22;9782;52.930;15.562;2023-03-23T15:29:17;16.20;1.00
18690;DHT22;9782;52.930;15.562;2023-03-23T15:31:49;16.10;1.00
18690;DHT22;9782;52.930;15.562;2023-03-23T15:34:25;16.00;1.00
18690;DHT22;9782;52.930;15.562;2023-03-23T15:36:57;16.00;1.00
18690;DHT22;9782;52.930;15.562;2023-03-23T15:39:25;16.10;1.00
18690;DHT22;9782;52.930;15.562;2023-03-23T15:41:53;16.10;1.00
18690;DHT22;9782;52.930;15.562;2023-03-23T15:44:27;16.10;1.00
18690;DHT22;9782;52.930;15.562;2023-03-23T15:47:04;16.10;1.00
18690;DHT22;9782;52.930;15.562;2023-03-23T15:49:31;16.10;1.00
18690;DHT22;9782;52.930;15.562;2023-03-23T15:51:58;16.00;1.00
18690;DHT22;9782;52.930;15.562;2023-03-23T15:54:30;15.80;1.00
18690;DHT22;9782;52.930;15.562;2023-03-23T15:56:57;15.80;1.00
18690;DHT22;9782;52.930;15.562;2023-03-23T15:59:24;15.80;1.00
18690;DHT22;9782;52.930;15.562;2023-03-23T16:01:51;15.80;1.00
18690;DHT22;9782;52.930;15.562;2023-03-23T16:04:19;15.70;1.00